sensor_id;sensor_type;location;lat;lon;timestamp;pressure;altitude;pressure_sealevel;temperature;humidity
52469;BME280;38381;53.688;10.776;2022-08-19T00:01:38;100840.72;;;20.22;82.66
52469;BME280;38381;53.688;10.776;2022-08-19T00:06:40;100825.16;;;20.15;83.19
52469;BME280;38381;53.688;10.776;2022-08-19T00:11:42;100824.78;;;19.99;83.96
52469;BME280;38381;53.688;10.776;2022-08-19T00:16:45;100810.84;;;19.95;84.65
52469;BME280;38381;53.688;10.776;2022-08-19T00:21:47;100801.72;;;19.79;85.33
52469;BME280;38381;53.688;10.776;2022-08-19T00:26:48;100833.38;;;19.77;85.12
52469;BME280;38381;53.688;10.776;2022-08-19T00:31:49;100823.84;;;19.73;85.53
52469;BME280;38381;53.688;10.776;2022-08-19T00:36:53;100812.94;;;19.85;85.08
52469;BME280;38381;53.688;10.776;2022-08-19T00:41:53;100811.44;;;19.77;85.60
52469;BME280;38381;53.688;10.776;2022-08-19T00:46:56;100793.19;;;19.70;86.80
52469;BME280;38381;53.688;10.776;2022-08-19T00:52:08;100789.69;;;19.70;86.29
52469;BME280;38381;53.688;10.776;2022-08-19T00:57:12;100782.03;;;19.62;87.01
52469;BME280;38381;53.688;10.776;2022-08-19T01:02:16;100773.91;;;19.72;87.22
52469;BME280;38381;53.688;10.776;2022-08-19T01:07:17;100773.09;;;19.68;87.42
52469;BME280;38381;53.688;10.776;2022-08-19T01:12:18;100774.94;;;19.64;87.45
52469;BME280;38381;53.688;10.776;2022-08-19T01:17:19;100795.47;;;19.53;88.10
52469;BME280;38381;53.688;10.776;2022-08-19T01:27:22;100791.47;;;19.71;87.54
52469;BME280;38381;53.688;10.776;2022-08-19T01:32:22;100797.81;;;19.62;88.07
52469;BME280;38381;53.688;10.776;2022-08-19T01:37:23;100789.88;;;19.64;88.00
52469;BME280;38381;53.688;10.776;2022-08-19T01:42:24;100785.84;;;19.52;88.40
52469;BME280;38381;53.688;10.776;2022-08-19T01:47:24;100796.38;;;19.52;88.68
52469;BME280;38381;53.688;10.776;2022-08-19T01:52:24;100800.06;;;19.46;88.85
52469;BME280;38381;53.688;10.776;2022-08-19T01:57:25;100791.91;;;19.54;88.46
52469;BME280;38381;53.688;10.776;2022-08-19T02:02:25;100790.44;;;19.45;89.08
52469;BME280;38381;53.688;10.776;2022-08-19T02:07:26;100793.88;;;19.47;88.54
52469;BME280;38381;53.688;10.776;2022-08-19T02:12:28;100796.31;;;19.54;88.05
52469;BME280;38381;53.688;10.776;2022-08-19T02:17:29;100797.13;;;19.56;87.67
52469;BME280;38381;53.688;10.776;2022-08-19T02:22:29;100785.81;;;19.54;88.05
52469;BME280;38381;53.688;10.776;2022-08-19T02:27:30;100769.94;;;19.57;87.97
52469;BME280;38381;53.688;10.776;2022-08-19T02:32:31;100755.38;;;19.45;88.81
52469;BME280;38381;53.688;10.776;2022-08-19T02:37:31;100762.31;;;19.47;88.80
52469;BME280;38381;53.688;10.776;2022-08-19T02:42:50;100784.72;;;19.31;89.93
52469;BME280;38381;53.688;10.776;2022-08-19T02:47:50;100784.47;;;19.40;89.31
52469;BME280;38381;53.688;10.776;2022-08-19T02:52:50;100790.34;;;19.48;88.72
52469;BME280;38381;53.688;10.776;2022-08-19T02:57:51;100783.28;;;19.50;88.97
52469;BME280;38381;53.688;10.776;2022-08-19T03:02:52;100786.94;;;19.45;88.97
52469;BME280;38381;53.688;10.776;2022-08-19T03:07:52;100800.19;;;19.42;89.47
52469;BME280;38381;53.688;10.776;2022-08-19T03:12:52;100814.09;;;19.45;88.94
52469;BME280;38381;53.688;10.776;2022-08-19T03:17:53;100828.19;;;19.44;88.93
52469;BME280;38381;53.688;10.776;2022-08-19T03:22:54;100835.31;;;19.39;89.42
52469;BME280;38381;53.688;10.776;2022-08-19T03:27:54;100832.66;;;19.41;89.31
52469;BME280;38381;53.688;10.776;2022-08-19T03:32:54;100816.78;;;19.44;89.43
52469;BME280;38381;53.688;10.776;2022-08-19T03:37:55;100819.38;;;19.45;89.12
52469;BME280;38381;53.688;10.776;2022-08-19T03:42:56;100823.47;;;19.54;88.90
52469;BME280;38381;53.688;10.776;2022-08-19T03:47:57;100819.00;;;19.58;88.86
52469;BME280;38381;53.688;10.776;2022-08-19T03:52:57;100828.75;;;19.54;89.35
52469;BME280;38381;53.688;10.776;2022-08-19T03:57:57;100842.03;;;19.49;89.37
52469;BME280;38381;53.688;10.776;2022-08-19T04:02:58;100838.69;;;19.44;89.50
52469;BME280;38381;53.688;10.776;2022-08-19T04:07:58;100835.31;;;19.39;89.84
52469;BME280;38381;53.688;10.776;2022-08-19T04:12:58;100846.69;;;19.40;89.88
52469;BME280;38381;53.688;10.776;2022-08-19T04:17:59;100841.22;;;19.47;89.24
52469;BME280;38381;53.688;10.776;2022-08-19T04:22:59;100839.44;;;19.48;89.50
52469;BME280;38381;53.688;10.776;2022-08-19T04:28:00;100841.34;;;19.44;90.04
52469;BME280;38381;53.688;10.776;2022-08-19T04:33:00;100848.50;;;19.38;90.20
52469;BME280;38381;53.688;10.776;2022-08-19T04:38:00;100842.41;;;19.37;90.15
52469;BME280;38381;53.688;10.776;2022-08-19T04:43:00;100844.97;;;19.40;89.85
52469;BME280;38381;53.688;10.776;2022-08-19T04:48:01;100836.19;;;19.40;89.82
52469;BME280;38381;53.688;10.776;2022-08-19T04:53:01;100838.88;;;19.38;90.25
52469;BME280;38381;53.688;10.776;2022-08-19T04:58:03;100847.31;;;19.49;89.97
52469;BME280;38381;53.688;10.776;2022-08-19T05:03:03;100853.84;;;19.36;91.07
52469;BME280;38381;53.688;10.776;2022-08-19T05:08:04;100853.84;;;19.36;91.36
52469;BME280;38381;53.688;10.776;2022-08-19T05:13:05;100858.97;;;19.41;90.66
52469;BME280;38381;53.688;10.776;2022-08-19T05:18:05;100853.94;;;19.32;91.22
52469;BME280;38381;53.688;10.776;2022-08-19T05:23:24;100866.88;;;19.39;90.57
52469;BME280;38381;53.688;10.776;2022-08-19T05:28:25;100859.91;;;19.38;90.78
52469;BME280;38381;53.688;10.776;2022-08-19T05:33:25;100865.03;;;19.43;90.86
52469;BME280;38381;53.688;10.776;2022-08-19T05:38:25;100866.88;;;19.39;90.71
52469;BME280;38381;53.688;10.776;2022-08-19T05:43:27;100861.81;;;19.33;90.96
52469;BME280;38381;53.688;10.776;2022-08-19T05:48:27;100850.31;;;19.36;90.95
52469;BME280;38381;53.688;10.776;2022-08-19T05:53:28;100853.53;;;19.47;90.51
52469;BME280;38381;53.688;10.776;2022-08-19T05:58:28;100842.31;;;19.40;90.47
52469;BME280;38381;53.688;10.776;2022-08-19T06:03:29;100838.88;;;19.38;90.25
52469;BME280;38381;53.688;10.776;2022-08-19T06:08:30;100836.16;;;19.41;90.57
52469;BME280;38381;53.688;10.776;2022-08-19T06:13:30;100851.03;;;19.42;90.58
52469;BME280;38381;53.688;10.776;2022-08-19T06:18:31;100849.50;;;19.34;91.69
52469;BME280;38381;53.688;10.776;2022-08-19T06:23:32;100846.63;;;19.43;90.92
52469;BME280;38381;53.688;10.776;2022-08-19T06:28:33;100842.25;;;19.42;90.93
52469;BME280;38381;53.688;10.776;2022-08-19T06:33:33;100847.31;;;19.49;90.47
52469;BME280;38381;53.688;10.776;2022-08-19T06:38:34;100839.63;;;19.42;90.85
52469;BME280;38381;53.688;10.776;2022-08-19T06:43:34;100840.41;;;19.45;90.83
52469;BME280;38381;53.688;10.776;2022-08-19T06:48:36;100843.00;;;19.47;90.74
52469;BME280;38381;53.688;10.776;2022-08-19T06:53:36;100844.81;;;19.45;91.07
52469;BME280;38381;53.688;10.776;2022-08-19T06:58:36;100837.81;;;19.44;90.91
52469;BME280;38381;53.688;10.776;2022-08-19T07:03:38;100834.28;;;19.45;90.83
52469;BME280;38381;53.688;10.776;2022-08-19T07:08:39;100844.97;;;19.40;90.82
52469;BME280;38381;53.688;10.776;2022-08-19T07:13:42;100855.41;;;19.42;91.99
52469;BME280;38381;53.688;10.776;2022-08-19T07:18:43;100853.09;;;19.31;92.48
52469;BME280;38381;53.688;10.776;2022-08-19T07:23:45;100856.06;;;19.50;91.41
52469;BME280;38381;53.688;10.776;2022-08-19T07:28:47;100854.72;;;19.35;92.25
52469;BME280;38381;53.688;10.776;2022-08-19T07:33:48;100863.66;;;19.29;92.98
52469;BME280;38381;53.688;10.776;2022-08-19T07:38:50;100878.72;;;19.54;92.18
52469;BME280;38381;53.688;10.776;2022-08-19T07:43:51;100882.16;;;19.26;93.54
52469;BME280;38381;53.688;10.776;2022-08-19T07:48:52;100888.03;;;19.36;93.63
52469;BME280;38381;53.688;10.776;2022-08-19T07:53:52;100893.16;;;19.41;93.64
52469;BME280;38381;53.688;10.776;2022-08-19T07:58:52;100901.91;;;19.41;93.69
52469;BME280;38381;53.688;10.776;2022-08-19T08:03:55;100897.38;;;19.46;92.88
52469;BME280;38381;53.688;10.776;2022-08-19T08:09:17;100909.81;;;19.40;93.37
52469;BME280;38381;53.688;10.776;2022-08-19T08:14:25;100909.59;;;19.49;92.92
52469;BME280;38381;53.688;10.776;2022-08-19T08:19:27;100910.44;;;19.49;92.49
52469;BME280;38381;53.688;10.776;2022-08-19T08:24:29;100910.44;;;19.49;93.09
52469;BME280;38381;53.688;10.776;2022-08-19T08:29:31;100919.97;;;19.54;92.73
52469;BME280;38381;53.688;10.776;2022-08-19T08:34:31;100928.66;;;19.57;92.67
52469;BME280;38381;53.688;10.776;2022-08-19T08:39:31;100931.41;;;19.53;92.98
52469;BME280;38381;53.688;10.776;2022-08-19T08:49:54;100932.06;;;19.61;92.89
52469;BME280;38381;53.688;10.776;2022-08-19T08:54:59;100940.59;;;19.69;92.49
52469;BME280;38381;53.688;10.776;2022-08-19T09:00:05;100936.31;;;19.65;92.51
52469;BME280;38381;53.688;10.776;2022-08-19T09:05:06;100935.63;;;19.58;93.33
52469;BME280;38381;53.688;10.776;2022-08-19T09:10:37;100939.06;;;19.60;93.73
52469;BME280;38381;53.688;10.776;2022-08-19T09:15:45;100929.44;;;19.61;93.59
52469;BME280;38381;53.688;10.776;2022-08-19T09:20:47;100939.78;;;19.67;93.61
52469;BME280;38381;53.688;10.776;2022-08-19T09:25:48;100940.59;;;19.69;93.95
52469;BME280;38381;53.688;10.776;2022-08-19T09:30:48;100948.38;;;19.74;93.52
52469;BME280;38381;53.688;10.776;2022-08-19T09:36:01;100934.19;;;19.79;93.40
52469;BME280;38381;53.688;10.776;2022-08-19T09:41:05;100927.97;;;19.82;93.40
52469;BME280;38381;53.688;10.776;2022-08-19T09:46:07;100934.00;;;19.85;93.67
52469;BME280;38381;53.688;10.776;2022-08-19T09:51:11;100932.28;;;19.84;93.86
52469;BME280;38381;53.688;10.776;2022-08-19T09:56:17;100929.75;;;19.81;94.30
52469;BME280;38381;53.688;10.776;2022-08-19T10:01:21;100934.94;;;19.83;94.02
52469;BME280;38381;53.688;10.776;2022-08-19T10:06:26;100940.91;;;19.89;93.29
52469;BME280;38381;53.688;10.776;2022-08-19T10:11:29;100936.56;;;19.87;94.61
52469;BME280;38381;53.688;10.776;2022-08-19T10:16:30;100940.09;;;19.87;94.27
52469;BME280;38381;53.688;10.776;2022-08-19T10:21:32;100939.94;;;19.92;94.29
52469;BME280;38381;53.688;10.776;2022-08-19T10:26:35;100939.09;;;19.92;94.97
52469;BME280;38381;53.688;10.776;2022-08-19T10:31:37;100936.41;;;19.93;94.84
52469;BME280;38381;53.688;10.776;2022-08-19T10:36:37;100942.56;;;19.94;95.04
52469;BME280;38381;53.688;10.776;2022-08-19T10:41:39;100942.25;;;20.03;94.50
52469;BME280;38381;53.688;10.776;2022-08-19T10:46:41;100945.03;;;19.98;94.63
52469;BME280;38381;53.688;10.776;2022-08-19T10:51:42;100942.38;;;20.00;95.04
52469;BME280;38381;53.688;10.776;2022-08-19T10:57:01;100943.13;;;20.03;94.46
52469;BME280;38381;53.688;10.776;2022-08-19T11:02:06;100940.44;;;20.05;94.64
52469;BME280;38381;53.688;10.776;2022-08-19T11:07:07;100942.06;;;20.09;94.28
52469;BME280;38381;53.688;10.776;2022-08-19T11:12:09;100943.88;;;20.07;93.45
52469;BME280;38381;53.688;10.776;2022-08-19T11:17:10;100939.59;;;20.04;93.49
52469;BME280;38381;53.688;10.776;2022-08-19T11:22:13;100947.63;;;20.00;93.61
52469;BME280;38381;53.688;10.776;2022-08-19T11:27:13;100944.06;;;20.01;92.98
52469;BME280;38381;53.688;10.776;2022-08-19T11:32:14;100939.91;;;19.94;93.45
52469;BME280;38381;53.688;10.776;2022-08-19T11:37:15;100932.91;;;19.93;93.36
52469;BME280;38381;53.688;10.776;2022-08-19T11:42:17;100926.66;;;19.97;93.49
52469;BME280;38381;53.688;10.776;2022-08-19T11:47:36;100929.91;;;20.05;93.80
52469;BME280;38381;53.688;10.776;2022-08-19T11:52:36;100924.97;;;19.94;94.52
52469;BME280;38381;53.688;10.776;2022-08-19T11:57:36;100925.59;;;20.02;93.59
52469;BME280;38381;53.688;10.776;2022-08-19T12:02:37;100931.72;;;20.03;94.26
52469;BME280;38381;53.688;10.776;2022-08-19T12:07:37;100923.00;;;20.01;95.22
52469;BME280;38381;53.688;10.776;2022-08-19T12:12:38;100924.75;;;20.02;95.08
52469;BME280;38381;53.688;10.776;2022-08-19T12:17:42;100927.00;;;20.14;94.33
52469;BME280;38381;53.688;10.776;2022-08-19T12:22:42;100917.75;;;20.29;93.75
52469;BME280;38381;53.688;10.776;2022-08-19T12:27:43;100922.25;;;20.25;93.82
52469;BME280;38381;53.688;10.776;2022-08-19T12:32:43;100923.81;;;20.33;94.30
52469;BME280;38381;53.688;10.776;2022-08-19T12:37:43;100921.03;;;20.37;95.17
52469;BME280;38381;53.688;10.776;2022-08-19T12:42:44;100932.13;;;20.47;94.49
52469;BME280;38381;53.688;10.776;2022-08-19T12:47:45;100931.78;;;20.59;94.26
52469;BME280;38381;53.688;10.776;2022-08-19T12:52:47;100929.06;;;20.61;93.60
52469;BME280;38381;53.688;10.776;2022-08-19T12:57:48;100920.09;;;20.66;93.41
52469;BME280;38381;53.688;10.776;2022-08-19T13:02:50;100921.97;;;20.63;93.36
52469;BME280;38381;53.688;10.776;2022-08-19T13:07:53;100916.84;;;20.58;94.60
52469;BME280;38381;53.688;10.776;2022-08-19T13:12:57;100914.13;;;20.61;93.95
52469;BME280;38381;53.688;10.776;2022-08-19T13:17:59;100918.19;;;20.72;94.54
52469;BME280;38381;53.688;10.776;2022-08-19T13:23:00;100911.38;;;20.64;93.87
52469;BME280;38381;53.688;10.776;2022-08-19T13:28:00;100914.25;;;20.83;92.72
52469;BME280;38381;53.688;10.776;2022-08-19T13:33:01;100909.34;;;20.73;93.45
52469;BME280;38381;53.688;10.776;2022-08-19T13:38:19;100904.31;;;20.92;92.49
52469;BME280;38381;53.688;10.776;2022-08-19T13:43:22;100907.66;;;20.97;92.88
52469;BME280;38381;53.688;10.776;2022-08-19T13:48:24;100904.06;;;20.99;92.62
52469;BME280;38381;53.688;10.776;2022-08-19T13:53:26;100913.72;;;21.00;93.42
52469;BME280;38381;53.688;10.776;2022-08-19T13:58:26;100895.69;;;21.13;91.21
52469;BME280;38381;53.688;10.776;2022-08-19T14:03:27;100899.00;;;21.18;91.52
52469;BME280;38381;53.688;10.776;2022-08-19T14:08:28;100901.94;;;21.34;90.17
52469;BME280;38381;53.688;10.776;2022-08-19T14:13:28;100907.22;;;21.34;90.21
52469;BME280;38381;53.688;10.776;2022-08-19T14:18:30;100904.31;;;21.42;90.73
52469;BME280;38381;53.688;10.776;2022-08-19T14:23:31;100895.00;;;21.57;89.93
52469;BME280;38381;53.688;10.776;2022-08-19T14:28:31;100890.06;;;21.71;89.13
52469;BME280;38381;53.688;10.776;2022-08-19T14:33:32;100891.19;;;21.87;88.99
52469;BME280;38381;53.688;10.776;2022-08-19T14:38:32;100894.59;;;21.91;87.97
52469;BME280;38381;53.688;10.776;2022-08-19T14:43:33;100895.44;;;21.92;87.77
52469;BME280;38381;53.688;10.776;2022-08-19T14:48:34;100895.34;;;21.95;85.93
52469;BME280;38381;53.688;10.776;2022-08-19T14:53:36;100900.50;;;21.98;87.10
52469;BME280;38381;53.688;10.776;2022-08-19T14:58:37;100896.25;;;21.94;87.19
52469;BME280;38381;53.688;10.776;2022-08-19T15:03:37;100893.97;;;22.06;86.53
52469;BME280;38381;53.688;10.776;2022-08-19T15:08:41;100894.47;;;21.94;86.80
52469;BME280;38381;53.688;10.776;2022-08-19T15:13:43;100898.22;;;22.10;86.54
52469;BME280;38381;53.688;10.776;2022-08-19T15:18:45;100903.69;;;22.06;85.56
52469;BME280;38381;53.688;10.776;2022-08-19T15:23:47;100910.94;;;22.01;86.09
52469;BME280;38381;53.688;10.776;2022-08-19T15:28:48;100906.13;;;21.88;86.36
52469;BME280;38381;53.688;10.776;2022-08-19T15:33:49;100912.59;;;22.03;85.86
52469;BME280;38381;53.688;10.776;2022-08-19T15:38:49;100914.63;;;21.97;85.76
52469;BME280;38381;53.688;10.776;2022-08-19T15:48:53;100918.22;;;21.94;85.75
52469;BME280;38381;53.688;10.776;2022-08-19T15:53:53;100919.69;;;22.03;86.62
52469;BME280;38381;53.688;10.776;2022-08-19T15:58:54;100920.91;;;22.16;86.48
52469;BME280;38381;53.688;10.776;2022-08-19T16:04:13;100912.78;;;22.21;85.63
52469;BME280;38381;53.688;10.776;2022-08-19T16:09:32;100916.38;;;22.20;85.64
52469;BME280;38381;53.688;10.776;2022-08-19T16:14:34;100914.25;;;22.29;85.30
52469;BME280;38381;53.688;10.776;2022-08-19T16:19:34;100912.47;;;22.30;85.08
52469;BME280;38381;53.688;10.776;2022-08-19T16:24:35;100910.44;;;22.37;85.74
52469;BME280;38381;53.688;10.776;2022-08-19T16:29:36;100912.22;;;22.36;85.36
52469;BME280;38381;53.688;10.776;2022-08-19T16:34:38;100911.63;;;22.29;84.79
52469;BME280;38381;53.688;10.776;2022-08-19T16:39:39;100909.34;;;22.19;85.19
52469;BME280;38381;53.688;10.776;2022-08-19T16:44:43;100910.09;;;22.22;84.72
52469;BME280;38381;53.688;10.776;2022-08-19T16:49:44;100915.38;;;22.22;83.26
52469;BME280;38381;53.688;10.776;2022-08-19T16:54:44;100908.19;;;22.27;82.75
52469;BME280;38381;53.688;10.776;2022-08-19T16:59:45;100912.41;;;22.32;82.82
52469;BME280;38381;53.688;10.776;2022-08-19T17:04:45;100920.72;;;22.21;83.50
52469;BME280;38381;53.688;10.776;2022-08-19T17:09:48;100916.22;;;22.23;82.95
52469;BME280;38381;53.688;10.776;2022-08-19T17:14:49;100922.63;;;22.17;83.83
52469;BME280;38381;53.688;10.776;2022-08-19T17:19:49;100925.53;;;22.11;83.83
52469;BME280;38381;53.688;10.776;2022-08-19T17:24:50;100924.59;;;22.12;83.54
52469;BME280;38381;53.688;10.776;2022-08-19T17:29:50;100933.25;;;22.16;83.18
52469;BME280;38381;53.688;10.776;2022-08-19T17:34:52;100930.28;;;22.01;83.36
52469;BME280;38381;53.688;10.776;2022-08-19T17:39:53;100929.16;;;21.85;83.86
52469;BME280;38381;53.688;10.776;2022-08-19T17:44:53;100934.94;;;21.95;83.35
52469;BME280;38381;53.688;10.776;2022-08-19T17:49:58;100938.69;;;21.89;83.18
52469;BME280;38381;53.688;10.776;2022-08-19T17:54:59;100931.00;;;21.83;83.39
52469;BME280;38381;53.688;10.776;2022-08-19T17:59:59;100927.94;;;21.94;83.87
52469;BME280;38381;53.688;10.776;2022-08-19T18:04:59;100919.81;;;21.76;83.31
52469;BME280;38381;53.688;10.776;2022-08-19T18:10:00;100907.69;;;21.70;83.57
52469;BME280;38381;53.688;10.776;2022-08-19T18:15:02;100905.94;;;21.69;83.53
52469;BME280;38381;53.688;10.776;2022-08-19T18:20:09;100901.88;;;21.61;84.04
52469;BME280;38381;53.688;10.776;2022-08-19T18:25:23;100905.09;;;21.45;84.45
52469;BME280;38381;53.688;10.776;2022-08-19T18:30:26;100901.66;;;21.43;84.15
52469;BME280;38381;53.688;10.776;2022-08-19T18:35:27;100902.75;;;21.36;84.45
52469;BME280;38381;53.688;10.776;2022-08-19T18:40:31;100905.31;;;21.39;84.35
52469;BME280;38381;53.688;10.776;2022-08-19T18:45:50;100909.06;;;21.32;84.71
52469;BME280;38381;53.688;10.776;2022-08-19T18:51:09;100920.75;;;21.25;84.91
52469;BME280;38381;53.688;10.776;2022-08-19T18:56:12;100921.06;;;21.16;85.23
52469;BME280;38381;53.688;10.776;2022-08-19T19:01:18;100937.91;;;21.12;85.23
52469;BME280;38381;53.688;10.776;2022-08-19T19:06:22;100946.16;;;21.02;85.24
52469;BME280;38381;53.688;10.776;2022-08-19T19:11:30;100947.38;;;20.92;85.50
52469;BME280;38381;53.688;10.776;2022-08-19T19:16:31;100957.94;;;20.92;84.70
52469;BME280;38381;53.688;10.776;2022-08-19T19:21:34;100959.03;;;20.85;85.08
52469;BME280;38381;53.688;10.776;2022-08-19T19:26:34;100949.69;;;20.75;85.17
52469;BME280;38381;53.688;10.776;2022-08-19T19:31:36;100942.19;;;20.62;85.65
52469;BME280;38381;53.688;10.776;2022-08-19T19:36:37;100932.06;;;20.48;86.15
52469;BME280;38381;53.688;10.776;2022-08-19T19:41:37;100948.84;;;20.46;85.68
52469;BME280;38381;53.688;10.776;2022-08-19T19:46:39;100935.00;;;20.39;85.81
52469;BME280;38381;53.688;10.776;2022-08-19T19:51:41;100936.09;;;20.32;86.00
52469;BME280;38381;53.688;10.776;2022-08-19T19:56:42;100936.41;;;20.23;85.85
52469;BME280;38381;53.688;10.776;2022-08-19T20:01:44;100949.06;;;20.10;86.38
52469;BME280;38381;53.688;10.776;2022-08-19T20:06:45;100962.31;;;19.77;87.43
52469;BME280;38381;53.688;10.776;2022-08-19T20:11:54;100963.31;;;19.73;88.38
52469;BME280;38381;53.688;10.776;2022-08-19T20:16:56;100973.78;;;19.75;87.36
52469;BME280;38381;53.688;10.776;2022-08-19T20:21:58;100993.44;;;19.61;87.05
52469;BME280;38381;53.688;10.776;2022-08-19T20:27:00;100999.56;;;19.60;87.18
52469;BME280;38381;53.688;10.776;2022-08-19T20:32:00;101003.47;;;19.47;87.97
52469;BME280;38381;53.688;10.776;2022-08-19T20:37:01;100997.59;;;19.36;88.28
52469;BME280;38381;53.688;10.776;2022-08-19T20:42:02;100998.69;;;19.28;89.53
52469;BME280;38381;53.688;10.776;2022-08-19T20:47:02;101006.63;;;19.25;89.66
52469;BME280;38381;53.688;10.776;2022-08-19T20:52:03;100996.22;;;19.22;88.80
52469;BME280;38381;53.688;10.776;2022-08-19T20:57:04;100993.88;;;19.12;88.81
52469;BME280;38381;53.688;10.776;2022-08-19T21:02:04;100994.84;;;19.07;88.57
52469;BME280;38381;53.688;10.776;2022-08-19T21:07:04;101010.69;;;19.04;88.07
52469;BME280;38381;53.688;10.776;2022-08-19T21:12:07;101005.56;;;18.98;88.36
52469;BME280;38381;53.688;10.776;2022-08-19T21:17:08;101004.00;;;18.91;88.94
52469;BME280;38381;53.688;10.776;2022-08-19T21:22:08;100995.16;;;18.95;89.05
52469;BME280;38381;53.688;10.776;2022-08-19T21:27:08;101008.28;;;18.95;89.45
52469;BME280;38381;53.688;10.776;2022-08-19T21:32:08;101003.09;;;18.92;89.98
52469;BME280;38381;53.688;10.776;2022-08-19T21:37:10;101008.53;;;18.84;90.48
52469;BME280;38381;53.688;10.776;2022-08-19T21:42:11;101012.94;;;18.82;90.69
52469;BME280;38381;53.688;10.776;2022-08-19T21:47:13;101013.13;;;18.75;89.52
52469;BME280;38381;53.688;10.776;2022-08-19T21:52:23;101006.41;;;18.61;89.74
52469;BME280;38381;53.688;10.776;2022-08-19T21:57:24;100996.91;;;18.56;90.77
52469;BME280;38381;53.688;10.776;2022-08-19T22:02:25;100995.31;;;18.48;91.06
52469;BME280;38381;53.688;10.776;2022-08-19T22:07:27;100987.44;;;18.48;91.17
52469;BME280;38381;53.688;10.776;2022-08-19T22:12:32;100987.69;;;18.38;92.42
52469;BME280;38381;53.688;10.776;2022-08-19T22:17:34;100984.13;;;18.40;91.95
52469;BME280;38381;53.688;10.776;2022-08-19T22:22:36;100978.78;;;18.43;91.04
52469;BME280;38381;53.688;10.776;2022-08-19T22:27:37;100976.22;;;18.42;91.27
52469;BME280;38381;53.688;10.776;2022-08-19T22:32:37;100975.31;;;18.43;91.79
52469;BME280;38381;53.688;10.776;2022-08-19T22:37:37;100984.19;;;18.37;91.84
52469;BME280;38381;53.688;10.776;2022-08-19T22:42:40;100979.00;;;18.36;92.06
52469;BME280;38381;53.688;10.776;2022-08-19T22:47:41;100984.28;;;18.34;92.23
52469;BME280;38381;53.688;10.776;2022-08-19T22:52:42;100977.25;;;18.35;91.80
52469;BME280;38381;53.688;10.776;2022-08-19T22:57:43;100982.44;;;18.38;92.03
52469;BME280;38381;53.688;10.776;2022-08-19T23:02:43;100981.81;;;18.26;93.04
52469;BME280;38381;53.688;10.776;2022-08-19T23:07:43;100978.09;;;18.35;92.35
52469;BME280;38381;53.688;10.776;2022-08-19T23:12:46;100985.06;;;18.38;91.97
52469;BME280;38381;53.688;10.776;2022-08-19T23:17:47;100974.59;;;18.36;92.00
52469;BME280;38381;53.688;10.776;2022-08-19T23:22:47;100974.63;;;18.35;91.90
52469;BME280;38381;53.688;10.776;2022-08-19T23:27:49;100978.19;;;18.32;92.48
52469;BME280;38381;53.688;10.776;2022-08-19T23:33:26;100978.94;;;18.37;92.05
52469;BME280;38381;53.688;10.776;2022-08-19T23:38:29;100965.72;;;18.42;91.77
52469;BME280;38381;53.688;10.776;2022-08-19T23:43:31;100970.97;;;18.42;92.00
52469;BME280;38381;53.688;10.776;2022-08-19T23:48:33;100968.50;;;18.36;92.76
52469;BME280;38381;53.688;10.776;2022-08-19T23:53:36;100970.38;;;18.29;93.05
52469;BME280;38381;53.688;10.776;2022-08-19T23:58:36;100967.75;;;18.29;92.79
